sensor_id;sensor_type;location;lat;lon;timestamp;temperature;humidity
38860;DHT22;24609;48.316;16.174;2023-03-14T00:00:59;10.60;97.90
38860;DHT22;24609;48.316;16.174;2023-03-14T00:03:25;10.40;98.50
38860;DHT22;24609;48.316;16.174;2023-03-14T00:05:51;10.30;99.40
38860;DHT22;24609;48.316;16.174;2023-03-14T00:08:16;10.30;99.90
38860;DHT22;24609;48.316;16.174;2023-03-14T00:10:43;10.40;99.80
38860;DHT22;24609;48.316;16.174;2023-03-14T00:13:09;10.30;99.90
38860;DHT22;24609;48.316;16.174;2023-03-14T00:15:34;10.00;99.90
38860;DHT22;24609;48.316;16.174;2023-03-14T00:18:00;10.10;99.90
38860;DHT22;24609;48.316;16.174;2023-03-14T00:20:26;10.10;99.90
38860;DHT22;24609;48.316;16.174;2023-03-14T00:22:52;10.20;99.90
38860;DHT22;24609;48.316;16.174;2023-03-14T00:25:18;10.10;99.90
38860;DHT22;24609;48.316;16.174;2023-03-14T00:27:44;9.80;99.90
38860;DHT22;24609;48.316;16.174;2023-03-14T00:30:10;9.90;99.90
38860;DHT22;24609;48.316;16.174;2023-03-14T00:32:36;9.90;99.90
38860;DHT22;24609;48.316;16.174;2023-03-14T00:35:02;10.00;99.90
38860;DHT22;24609;48.316;16.174;2023-03-14T00:37:28;10.10;99.90
38860;DHT22;24609;48.316;16.174;2023-03-14T00:39:54;10.10;99.90
38860;DHT22;24609;48.316;16.174;2023-03-14T00:42:20;10.00;99.90
38860;DHT22;24609;48.316;16.174;2023-03-14T00:44:45;9.80;99.90
38860;DHT22;24609;48.316;16.174;2023-03-14T00:47:11;9.70;99.90
38860;DHT22;24609;48.316;16.174;2023-03-14T00:49:37;9.50;99.90
38860;DHT22;24609;48.316;16.174;2023-03-14T00:52:03;9.30;99.90
38860;DHT22;24609;48.316;16.174;2023-03-14T00:54:29;9.40;99.90
38860;DHT22;24609;48.316;16.174;2023-03-14T00:56:55;9.50;99.90
38860;DHT22;24609;48.316;16.174;2023-03-14T00:59:20;9.50;99.90
38860;DHT22;24609;48.316;16.174;2023-03-14T01:01:46;9.50;99.90
38860;DHT22;24609;48.316;16.174;2023-03-14T01:04:12;9.30;99.90
38860;DHT22;24609;48.316;16.174;2023-03-14T01:06:39;9.00;99.90
38860;DHT22;24609;48.316;16.174;2023-03-14T01:09:04;8.80;99.90
38860;DHT22;24609;48.316;16.174;2023-03-14T01:11:33;8.70;99.90
38860;DHT22;24609;48.316;16.174;2023-03-14T01:13:59;8.80;99.90
38860;DHT22;24609;48.316;16.174;2023-03-14T01:16:27;8.80;99.90
38860;DHT22;24609;48.316;16.174;2023-03-14T01:18:53;8.60;99.90
38860;DHT22;24609;48.316;16.174;2023-03-14T01:21:22;8.50;99.90
38860;DHT22;24609;48.316;16.174;2023-03-14T01:23:49;8.50;99.90
38860;DHT22;24609;48.316;16.174;2023-03-14T01:26:18;8.50;99.90
38860;DHT22;24609;48.316;16.174;2023-03-14T01:28:49;8.50;99.90
38860;DHT22;24609;48.316;16.174;2023-03-14T01:31:15;8.50;99.90
38860;DHT22;24609;48.316;16.174;2023-03-14T01:33:41;8.60;99.90
38860;DHT22;24609;48.316;16.174;2023-03-14T01:36:08;8.70;99.90
38860;DHT22;24609;48.316;16.174;2023-03-14T01:38:35;9.00;99.90
38860;DHT22;24609;48.316;16.174;2023-03-14T01:41:02;8.90;99.90
38860;DHT22;24609;48.316;16.174;2023-03-14T01:43:29;8.90;99.90
38860;DHT22;24609;48.316;16.174;2023-03-14T01:48:37;8.70;99.90
38860;DHT22;24609;48.316;16.174;2023-03-14T01:51:10;9.20;99.90
38860;DHT22;24609;48.316;16.174;2023-03-14T01:53:38;9.10;99.90
38860;DHT22;24609;48.316;16.174;2023-03-14T01:56:06;8.90;99.90
38860;DHT22;24609;48.316;16.174;2023-03-14T01:58:33;9.00;99.90
38860;DHT22;24609;48.316;16.174;2023-03-14T02:01:02;8.90;99.90
38860;DHT22;24609;48.316;16.174;2023-03-14T02:03:30;8.90;99.90
38860;DHT22;24609;48.316;16.174;2023-03-14T02:05:59;8.70;99.90
38860;DHT22;24609;48.316;16.174;2023-03-14T02:08:27;8.60;99.90
38860;DHT22;24609;48.316;16.174;2023-03-14T02:10:53;8.30;99.90
38860;DHT22;24609;48.316;16.174;2023-03-14T02:13:20;8.00;99.90
38860;DHT22;24609;48.316;16.174;2023-03-14T02:15:47;7.60;99.90
38860;DHT22;24609;48.316;16.174;2023-03-14T02:18:14;7.20;99.90
38860;DHT22;24609;48.316;16.174;2023-03-14T02:20:48;6.90;99.90
38860;DHT22;24609;48.316;16.174;2023-03-14T02:24:22;6.60;99.90
38860;DHT22;24609;48.316;16.174;2023-03-14T02:26:28;6.50;99.90
38860;DHT22;24609;48.316;16.174;2023-03-14T02:28:54;6.30;99.90
38860;DHT22;24609;48.316;16.174;2023-03-14T02:31:21;6.20;99.90
38860;DHT22;24609;48.316;16.174;2023-03-14T02:33:47;6.10;99.90
38860;DHT22;24609;48.316;16.174;2023-03-14T02:36:14;6.10;99.90
38860;DHT22;24609;48.316;16.174;2023-03-14T02:38:58;6.20;99.90
38860;DHT22;24609;48.316;16.174;2023-03-14T02:41:26;6.00;99.90
38860;DHT22;24609;48.316;16.174;2023-03-14T02:43:52;5.90;99.90
38860;DHT22;24609;48.316;16.174;2023-03-14T02:46:19;5.70;99.90
38860;DHT22;24609;48.316;16.174;2023-03-14T02:48:55;5.70;99.90
38860;DHT22;24609;48.316;16.174;2023-03-14T02:51:24;5.60;99.90
38860;DHT22;24609;48.316;16.174;2023-03-14T02:53:51;5.60;99.90
38860;DHT22;24609;48.316;16.174;2023-03-14T02:56:16;5.60;99.90
38860;DHT22;24609;48.316;16.174;2023-03-14T02:58:42;5.60;99.90
38860;DHT22;24609;48.316;16.174;2023-03-14T03:01:08;5.60;99.90
38860;DHT22;24609;48.316;16.174;2023-03-14T03:03:34;5.70;99.90
38860;DHT22;24609;48.316;16.174;2023-03-14T03:05:59;5.70;99.90
38860;DHT22;24609;48.316;16.174;2023-03-14T03:08:26;5.70;99.90
38860;DHT22;24609;48.316;16.174;2023-03-14T03:10:52;5.60;99.90
38860;DHT22;24609;48.316;16.174;2023-03-14T03:13:19;5.50;99.90
38860;DHT22;24609;48.316;16.174;2023-03-14T03:15:45;5.60;99.90
38860;DHT22;24609;48.316;16.174;2023-03-14T03:18:11;5.70;99.90
38860;DHT22;24609;48.316;16.174;2023-03-14T03:20:37;5.80;99.90
38860;DHT22;24609;48.316;16.174;2023-03-14T03:23:03;6.00;99.90
38860;DHT22;24609;48.316;16.174;2023-03-14T03:25:29;6.10;99.90
38860;DHT22;24609;48.316;16.174;2023-03-14T03:27:56;6.20;99.90
38860;DHT22;24609;48.316;16.174;2023-03-14T03:30:21;6.20;99.90
38860;DHT22;24609;48.316;16.174;2023-03-14T03:32:47;6.20;99.90
38860;DHT22;24609;48.316;16.174;2023-03-14T03:35:13;6.30;99.90
38860;DHT22;24609;48.316;16.174;2023-03-14T03:37:39;6.30;99.90
38860;DHT22;24609;48.316;16.174;2023-03-14T03:40:05;6.30;99.90
38860;DHT22;24609;48.316;16.174;2023-03-14T03:42:32;6.20;99.90
38860;DHT22;24609;48.316;16.174;2023-03-14T03:44:59;6.20;99.90
38860;DHT22;24609;48.316;16.174;2023-03-14T03:47:24;6.10;99.90
38860;DHT22;24609;48.316;16.174;2023-03-14T03:49:50;5.90;99.90
38860;DHT22;24609;48.316;16.174;2023-03-14T03:52:16;5.80;99.90
38860;DHT22;24609;48.316;16.174;2023-03-14T03:54:41;5.70;99.90
38860;DHT22;24609;48.316;16.174;2023-03-14T03:57:07;5.60;99.90
38860;DHT22;24609;48.316;16.174;2023-03-14T03:59:33;5.50;99.90
38860;DHT22;24609;48.316;16.174;2023-03-14T04:01:58;5.50;99.90
38860;DHT22;24609;48.316;16.174;2023-03-14T04:04:24;5.50;99.90
38860;DHT22;24609;48.316;16.174;2023-03-14T04:06:50;5.50;99.90
38860;DHT22;24609;48.316;16.174;2023-03-14T04:09:15;5.50;99.90
38860;DHT22;24609;48.316;16.174;2023-03-14T04:11:41;5.40;99.90
38860;DHT22;24609;48.316;16.174;2023-03-14T04:14:07;5.50;99.90
38860;DHT22;24609;48.316;16.174;2023-03-14T04:16:33;5.50;99.90
38860;DHT22;24609;48.316;16.174;2023-03-14T04:18:59;5.60;99.90
38860;DHT22;24609;48.316;16.174;2023-03-14T04:21:25;5.60;99.90
38860;DHT22;24609;48.316;16.174;2023-03-14T04:23:50;5.70;99.90
38860;DHT22;24609;48.316;16.174;2023-03-14T04:26:16;5.70;99.90
38860;DHT22;24609;48.316;16.174;2023-03-14T04:28:42;5.80;99.90
38860;DHT22;24609;48.316;16.174;2023-03-14T04:31:17;5.90;99.90
38860;DHT22;24609;48.316;16.174;2023-03-14T04:33:44;5.90;99.90
38860;DHT22;24609;48.316;16.174;2023-03-14T04:36:10;5.90;99.90
38860;DHT22;24609;48.316;16.174;2023-03-14T04:38:36;5.80;99.90
38860;DHT22;24609;48.316;16.174;2023-03-14T04:41:02;5.80;99.90
38860;DHT22;24609;48.316;16.174;2023-03-14T04:43:28;5.80;99.90
38860;DHT22;24609;48.316;16.174;2023-03-14T04:45:54;5.70;99.90
38860;DHT22;24609;48.316;16.174;2023-03-14T04:48:21;5.70;99.90
38860;DHT22;24609;48.316;16.174;2023-03-14T04:50:47;5.60;99.90
38860;DHT22;24609;48.316;16.174;2023-03-14T04:53:14;5.60;99.90
38860;DHT22;24609;48.316;16.174;2023-03-14T04:55:40;5.70;99.90
38860;DHT22;24609;48.316;16.174;2023-03-14T04:58:05;5.70;99.90
38860;DHT22;24609;48.316;16.174;2023-03-14T05:00:31;5.70;99.90
38860;DHT22;24609;48.316;16.174;2023-03-14T05:02:57;5.70;99.90
38860;DHT22;24609;48.316;16.174;2023-03-14T05:05:23;5.70;99.90
38860;DHT22;24609;48.316;16.174;2023-03-14T05:07:48;5.80;99.90
38860;DHT22;24609;48.316;16.174;2023-03-14T05:10:14;5.70;99.90
38860;DHT22;24609;48.316;16.174;2023-03-14T05:12:40;5.80;99.90
38860;DHT22;24609;48.316;16.174;2023-03-14T05:15:06;5.80;99.90
38860;DHT22;24609;48.316;16.174;2023-03-14T05:17:33;5.80;99.90
38860;DHT22;24609;48.316;16.174;2023-03-14T05:19:58;5.80;99.90
38860;DHT22;24609;48.316;16.174;2023-03-14T05:22:24;5.90;99.90
38860;DHT22;24609;48.316;16.174;2023-03-14T05:24:50;6.00;99.90
38860;DHT22;24609;48.316;16.174;2023-03-14T05:27:16;6.00;99.90
38860;DHT22;24609;48.316;16.174;2023-03-14T05:29:41;6.10;99.90
38860;DHT22;24609;48.316;16.174;2023-03-14T05:32:07;6.20;99.90
38860;DHT22;24609;48.316;16.174;2023-03-14T05:34:33;6.20;99.90
38860;DHT22;24609;48.316;16.174;2023-03-14T05:36:58;6.20;99.90
38860;DHT22;24609;48.316;16.174;2023-03-14T05:39:24;6.30;99.90
38860;DHT22;24609;48.316;16.174;2023-03-14T05:41:50;6.40;99.90
38860;DHT22;24609;48.316;16.174;2023-03-14T05:44:16;6.60;99.90
38860;DHT22;24609;48.316;16.174;2023-03-14T05:46:42;7.00;99.90
38860;DHT22;24609;48.316;16.174;2023-03-14T05:49:08;7.50;99.90
38860;DHT22;24609;48.316;16.174;2023-03-14T05:51:33;7.90;99.90
38860;DHT22;24609;48.316;16.174;2023-03-14T05:53:59;8.10;99.90
38860;DHT22;24609;48.316;16.174;2023-03-14T05:56:24;8.30;99.90
38860;DHT22;24609;48.316;16.174;2023-03-14T05:58:50;8.50;99.90
38860;DHT22;24609;48.316;16.174;2023-03-14T06:01:16;8.70;99.90
38860;DHT22;24609;48.316;16.174;2023-03-14T06:03:41;8.90;99.90
38860;DHT22;24609;48.316;16.174;2023-03-14T06:06:07;9.00;99.90
38860;DHT22;24609;48.316;16.174;2023-03-14T06:08:33;9.20;99.90
38860;DHT22;24609;48.316;16.174;2023-03-14T06:11:01;9.30;99.90
38860;DHT22;24609;48.316;16.174;2023-03-14T06:13:27;9.60;99.90
38860;DHT22;24609;48.316;16.174;2023-03-14T06:15:53;9.70;99.90
38860;DHT22;24609;48.316;16.174;2023-03-14T06:18:19;9.90;99.90
38860;DHT22;24609;48.316;16.174;2023-03-14T06:20:45;10.10;99.90
38860;DHT22;24609;48.316;16.174;2023-03-14T06:23:11;10.10;99.90
38860;DHT22;24609;48.316;16.174;2023-03-14T06:25:37;10.20;99.90
38860;DHT22;24609;48.316;16.174;2023-03-14T06:28:03;10.30;99.90
38860;DHT22;24609;48.316;16.174;2023-03-14T06:30:29;10.40;99.90
38860;DHT22;24609;48.316;16.174;2023-03-14T06:32:54;10.40;99.90
38860;DHT22;24609;48.316;16.174;2023-03-14T06:35:22;10.50;99.90
38860;DHT22;24609;48.316;16.174;2023-03-14T06:37:48;10.50;99.90
38860;DHT22;24609;48.316;16.174;2023-03-14T06:40:14;10.80;99.90
38860;DHT22;24609;48.316;16.174;2023-03-14T06:42:44;11.00;99.90
38860;DHT22;24609;48.316;16.174;2023-03-14T06:45:10;11.10;99.90
38860;DHT22;24609;48.316;16.174;2023-03-14T06:47:36;11.00;99.90
38860;DHT22;24609;48.316;16.174;2023-03-14T06:50:04;11.00;99.90
38860;DHT22;24609;48.316;16.174;2023-03-14T06:52:30;10.90;99.90
38860;DHT22;24609;48.316;16.174;2023-03-14T06:54:56;11.10;99.90
38860;DHT22;24609;48.316;16.174;2023-03-14T06:57:21;11.40;99.90
38860;DHT22;24609;48.316;16.174;2023-03-14T06:59:47;12.10;99.90
38860;DHT22;24609;48.316;16.174;2023-03-14T07:02:13;12.30;99.90
38860;DHT22;24609;48.316;16.174;2023-03-14T07:04:39;12.40;99.90
38860;DHT22;24609;48.316;16.174;2023-03-14T07:07:05;12.70;99.90
38860;DHT22;24609;48.316;16.174;2023-03-14T07:09:31;13.10;99.90
38860;DHT22;24609;48.316;16.174;2023-03-14T07:11:57;13.20;99.90
38860;DHT22;24609;48.316;16.174;2023-03-14T07:14:23;12.90;99.90
38860;DHT22;24609;48.316;16.174;2023-03-14T07:16:48;12.60;99.90
38860;DHT22;24609;48.316;16.174;2023-03-14T07:19:14;12.40;99.90
38860;DHT22;24609;48.316;16.174;2023-03-14T07:21:40;12.30;99.90
38860;DHT22;24609;48.316;16.174;2023-03-14T07:24:06;12.20;99.90
38860;DHT22;24609;48.316;16.174;2023-03-14T07:26:31;12.20;99.90
38860;DHT22;24609;48.316;16.174;2023-03-14T07:28:57;12.10;99.90
38860;DHT22;24609;48.316;16.174;2023-03-14T07:31:23;12.20;99.90
38860;DHT22;24609;48.316;16.174;2023-03-14T07:33:49;12.20;99.90
38860;DHT22;24609;48.316;16.174;2023-03-14T07:36:15;12.20;99.90
38860;DHT22;24609;48.316;16.174;2023-03-14T07:38:41;12.20;99.90
38860;DHT22;24609;48.316;16.174;2023-03-14T07:41:07;12.30;99.90
38860;DHT22;24609;48.316;16.174;2023-03-14T07:43:33;12.30;99.90
38860;DHT22;24609;48.316;16.174;2023-03-14T07:45:59;12.30;99.90
38860;DHT22;24609;48.316;16.174;2023-03-14T07:48:25;12.30;99.90
38860;DHT22;24609;48.316;16.174;2023-03-14T07:50:53;12.20;99.90
38860;DHT22;24609;48.316;16.174;2023-03-14T07:53:20;12.20;99.90
38860;DHT22;24609;48.316;16.174;2023-03-14T07:55:46;12.10;99.90
38860;DHT22;24609;48.316;16.174;2023-03-14T07:58:13;12.10;99.90
38860;DHT22;24609;48.316;16.174;2023-03-14T08:00:38;12.00;99.90
38860;DHT22;24609;48.316;16.174;2023-03-14T08:03:04;11.90;99.90
38860;DHT22;24609;48.316;16.174;2023-03-14T08:05:30;12.00;99.90
38860;DHT22;24609;48.316;16.174;2023-03-14T08:07:55;12.00;99.90
38860;DHT22;24609;48.316;16.174;2023-03-14T08:10:21;12.10;99.90
38860;DHT22;24609;48.316;16.174;2023-03-14T08:12:58;12.00;99.90
38860;DHT22;24609;48.316;16.174;2023-03-14T08:15:25;12.10;99.90
38860;DHT22;24609;48.316;16.174;2023-03-14T08:17:51;12.20;99.90
38860;DHT22;24609;48.316;16.174;2023-03-14T08:20:18;12.30;99.90
38860;DHT22;24609;48.316;16.174;2023-03-14T08:22:44;12.40;99.90
38860;DHT22;24609;48.316;16.174;2023-03-14T08:25:10;12.40;99.90
38860;DHT22;24609;48.316;16.174;2023-03-14T08:27:36;12.50;99.90
38860;DHT22;24609;48.316;16.174;2023-03-14T08:30:07;12.60;99.90
38860;DHT22;24609;48.316;16.174;2023-03-14T08:32:33;12.60;99.90
38860;DHT22;24609;48.316;16.174;2023-03-14T08:34:59;12.60;99.90
38860;DHT22;24609;48.316;16.174;2023-03-14T08:37:25;12.60;99.90
38860;DHT22;24609;48.316;16.174;2023-03-14T08:39:51;12.70;99.90
38860;DHT22;24609;48.316;16.174;2023-03-14T08:42:17;12.80;99.90
38860;DHT22;24609;48.316;16.174;2023-03-14T08:44:43;12.80;99.90
38860;DHT22;24609;48.316;16.174;2023-03-14T08:47:09;12.80;99.90
38860;DHT22;24609;48.316;16.174;2023-03-14T08:49:34;12.80;99.90
38860;DHT22;24609;48.316;16.174;2023-03-14T08:52:02;12.80;99.90
38860;DHT22;24609;48.316;16.174;2023-03-14T08:54:28;12.80;99.90
38860;DHT22;24609;48.316;16.174;2023-03-14T08:56:54;12.90;99.90
38860;DHT22;24609;48.316;16.174;2023-03-14T08:59:20;12.90;99.90
38860;DHT22;24609;48.316;16.174;2023-03-14T09:01:45;12.90;99.90
38860;DHT22;24609;48.316;16.174;2023-03-14T09:04:11;12.90;99.90
38860;DHT22;24609;48.316;16.174;2023-03-14T09:06:37;13.00;99.90
38860;DHT22;24609;48.316;16.174;2023-03-14T09:09:02;12.90;99.90
38860;DHT22;24609;48.316;16.174;2023-03-14T09:11:28;12.90;99.90
38860;DHT22;24609;48.316;16.174;2023-03-14T09:13:54;12.80;99.90
38860;DHT22;24609;48.316;16.174;2023-03-14T09:16:20;12.80;99.90
38860;DHT22;24609;48.316;16.174;2023-03-14T09:18:45;12.80;99.90
38860;DHT22;24609;48.316;16.174;2023-03-14T09:21:11;12.80;99.90
38860;DHT22;24609;48.316;16.174;2023-03-14T09:23:37;12.90;99.90
38860;DHT22;24609;48.316;16.174;2023-03-14T09:26:03;12.90;99.90
38860;DHT22;24609;48.316;16.174;2023-03-14T09:28:28;13.00;99.90
38860;DHT22;24609;48.316;16.174;2023-03-14T09:30:54;13.10;99.90
38860;DHT22;24609;48.316;16.174;2023-03-14T09:33:20;13.10;99.90
38860;DHT22;24609;48.316;16.174;2023-03-14T09:35:46;13.20;99.90
38860;DHT22;24609;48.316;16.174;2023-03-14T09:38:11;13.20;99.90
38860;DHT22;24609;48.316;16.174;2023-03-14T09:40:38;13.20;99.90
38860;DHT22;24609;48.316;16.174;2023-03-14T09:43:05;13.30;99.90
38860;DHT22;24609;48.316;16.174;2023-03-14T09:45:38;13.30;99.90
38860;DHT22;24609;48.316;16.174;2023-03-14T09:48:08;13.40;99.90
38860;DHT22;24609;48.316;16.174;2023-03-14T09:50:41;13.50;99.90
38860;DHT22;24609;48.316;16.174;2023-03-14T09:53:17;13.50;99.90
38860;DHT22;24609;48.316;16.174;2023-03-14T09:55:45;13.50;99.90
38860;DHT22;24609;48.316;16.174;2023-03-14T09:58:14;13.40;99.90
38860;DHT22;24609;48.316;16.174;2023-03-14T10:00:41;13.40;99.90
38860;DHT22;24609;48.316;16.174;2023-03-14T10:05:42;13.20;99.90
38860;DHT22;24609;48.316;16.174;2023-03-14T10:08:10;13.10;99.90
38860;DHT22;24609;48.316;16.174;2023-03-14T10:10:37;12.90;99.90
38860;DHT22;24609;48.316;16.174;2023-03-14T10:13:23;12.90;99.90
38860;DHT22;24609;48.316;16.174;2023-03-14T10:16:01;12.80;99.90
38860;DHT22;24609;48.316;16.174;2023-03-14T10:18:30;12.70;99.90
38860;DHT22;24609;48.316;16.174;2023-03-14T10:21:04;12.70;99.90
38860;DHT22;24609;48.316;16.174;2023-03-14T10:23:32;12.60;99.90
38860;DHT22;24609;48.316;16.174;2023-03-14T10:26:06;12.50;99.90
38860;DHT22;24609;48.316;16.174;2023-03-14T10:28:52;12.40;99.90
38860;DHT22;24609;48.316;16.174;2023-03-14T10:31:19;12.40;99.90
38860;DHT22;24609;48.316;16.174;2023-03-14T10:34:01;12.30;99.90
38860;DHT22;24609;48.316;16.174;2023-03-14T10:36:29;12.30;99.90
38860;DHT22;24609;48.316;16.174;2023-03-14T10:41:48;12.20;99.90
38860;DHT22;24609;48.316;16.174;2023-03-14T10:44:22;12.20;99.90
38860;DHT22;24609;48.316;16.174;2023-03-14T10:47:00;12.20;99.90
38860;DHT22;24609;48.316;16.174;2023-03-14T10:49:29;12.20;99.90
38860;DHT22;24609;48.316;16.174;2023-03-14T10:51:55;12.10;99.90
38860;DHT22;24609;48.316;16.174;2023-03-14T10:54:29;12.10;99.90
38860;DHT22;24609;48.316;16.174;2023-03-14T10:57:00;12.00;99.90
38860;DHT22;24609;48.316;16.174;2023-03-14T10:59:32;11.90;99.90
38860;DHT22;24609;48.316;16.174;2023-03-14T11:04:59;11.80;99.90
38860;DHT22;24609;48.316;16.174;2023-03-14T11:07:38;11.70;99.90
38860;DHT22;24609;48.316;16.174;2023-03-14T11:10:31;11.70;99.90
38860;DHT22;24609;48.316;16.174;2023-03-14T11:15:42;11.60;99.90
38860;DHT22;24609;48.316;16.174;2023-03-14T11:20:59;11.60;99.90
38860;DHT22;24609;48.316;16.174;2023-03-14T11:26:50;11.60;99.90
38860;DHT22;24609;48.316;16.174;2023-03-14T11:29:40;11.50;99.90
38860;DHT22;24609;48.316;16.174;2023-03-14T11:34:54;11.50;99.90
38860;DHT22;24609;48.316;16.174;2023-03-14T11:37:46;11.50;99.90
38860;DHT22;24609;48.316;16.174;2023-03-14T11:40:19;11.40;99.90
38860;DHT22;24609;48.316;16.174;2023-03-14T11:43:00;11.40;99.90
38860;DHT22;24609;48.316;16.174;2023-03-14T11:45:34;11.40;99.90
38860;DHT22;24609;48.316;16.174;2023-03-14T11:48:24;11.30;99.90
38860;DHT22;24609;48.316;16.174;2023-03-14T11:50:57;11.20;99.90
38860;DHT22;24609;48.316;16.174;2023-03-14T11:55:59;11.20;99.90
38860;DHT22;24609;48.316;16.174;2023-03-14T11:58:31;11.20;99.90
38860;DHT22;24609;48.316;16.174;2023-03-14T12:01:05;11.10;99.90
38860;DHT22;24609;48.316;16.174;2023-03-14T12:03:36;11.10;99.90
38860;DHT22;24609;48.316;16.174;2023-03-14T12:08:49;11.10;99.90
38860;DHT22;24609;48.316;16.174;2023-03-14T12:11:36;11.00;99.90
38860;DHT22;24609;48.316;16.174;2023-03-14T12:14:22;11.00;99.90
38860;DHT22;24609;48.316;16.174;2023-03-14T12:16:49;11.00;99.90
38860;DHT22;24609;48.316;16.174;2023-03-14T12:21:55;11.10;99.90
38860;DHT22;24609;48.316;16.174;2023-03-14T12:24:26;11.00;99.90
38860;DHT22;24609;48.316;16.174;2023-03-14T12:26:55;11.00;99.90
38860;DHT22;24609;48.316;16.174;2023-03-14T12:29:22;11.00;99.90
38860;DHT22;24609;48.316;16.174;2023-03-14T12:34:29;10.90;99.90
38860;DHT22;24609;48.316;16.174;2023-03-14T12:45:24;10.70;99.90
38860;DHT22;24609;48.316;16.174;2023-03-14T12:47:52;10.70;99.90
38860;DHT22;24609;48.316;16.174;2023-03-14T12:50:24;10.70;99.90
38860;DHT22;24609;48.316;16.174;2023-03-14T12:56:09;10.60;99.90
38860;DHT22;24609;48.316;16.174;2023-03-14T13:01:21;10.60;99.90
38860;DHT22;24609;48.316;16.174;2023-03-14T13:03:57;10.60;99.90
38860;DHT22;24609;48.316;16.174;2023-03-14T13:06:48;10.60;99.90
38860;DHT22;24609;48.316;16.174;2023-03-14T13:11:55;10.60;99.90
38860;DHT22;24609;48.316;16.174;2023-03-14T13:14:22;10.50;99.90
38860;DHT22;24609;48.316;16.174;2023-03-14T13:16:49;10.50;99.90
38860;DHT22;24609;48.316;16.174;2023-03-14T13:19:19;10.50;99.90
38860;DHT22;24609;48.316;16.174;2023-03-14T13:21:47;10.50;99.90
38860;DHT22;24609;48.316;16.174;2023-03-14T13:24:26;10.50;99.90
38860;DHT22;24609;48.316;16.174;2023-03-14T13:26:54;10.50;99.90
38860;DHT22;24609;48.316;16.174;2023-03-14T13:29:28;10.60;99.90
38860;DHT22;24609;48.316;16.174;2023-03-14T13:31:56;10.50;99.90
38860;DHT22;24609;48.316;16.174;2023-03-14T13:34:28;10.60;99.90
38860;DHT22;24609;48.316;16.174;2023-03-14T13:36:54;10.60;99.90
38860;DHT22;24609;48.316;16.174;2023-03-14T13:39:23;10.60;99.90
38860;DHT22;24609;48.316;16.174;2023-03-14T13:41:52;10.60;99.90
38860;DHT22;24609;48.316;16.174;2023-03-14T13:44:30;10.50;99.90
38860;DHT22;24609;48.316;16.174;2023-03-14T13:47:01;10.50;99.90
38860;DHT22;24609;48.316;16.174;2023-03-14T13:49:29;10.50;99.90
38860;DHT22;24609;48.316;16.174;2023-03-14T13:51:57;10.50;99.90
38860;DHT22;24609;48.316;16.174;2023-03-14T13:54:25;10.60;99.90
38860;DHT22;24609;48.316;16.174;2023-03-14T13:57:05;10.60;99.90
38860;DHT22;24609;48.316;16.174;2023-03-14T13:59:33;10.60;99.90
38860;DHT22;24609;48.316;16.174;2023-03-14T14:02:03;10.70;99.90
38860;DHT22;24609;48.316;16.174;2023-03-14T14:04:32;10.70;99.90
38860;DHT22;24609;48.316;16.174;2023-03-14T14:07:00;10.70;99.90
38860;DHT22;24609;48.316;16.174;2023-03-14T14:09:39;10.80;99.90
38860;DHT22;24609;48.316;16.174;2023-03-14T14:12:16;10.90;99.90
38860;DHT22;24609;48.316;16.174;2023-03-14T14:14:57;11.00;99.90
38860;DHT22;24609;48.316;16.174;2023-03-14T14:17:32;11.00;99.90
38860;DHT22;24609;48.316;16.174;2023-03-14T14:20:05;11.00;99.90
38860;DHT22;24609;48.316;16.174;2023-03-14T14:22:32;11.00;99.90
38860;DHT22;24609;48.316;16.174;2023-03-14T14:24:59;11.00;99.90
38860;DHT22;24609;48.316;16.174;2023-03-14T14:27:35;11.10;99.90
38860;DHT22;24609;48.316;16.174;2023-03-14T14:32:43;11.00;99.90
38860;DHT22;24609;48.316;16.174;2023-03-14T14:35:23;11.10;99.90
38860;DHT22;24609;48.316;16.174;2023-03-14T14:37:50;11.10;99.90
38860;DHT22;24609;48.316;16.174;2023-03-14T14:40:23;11.20;99.90
38860;DHT22;24609;48.316;16.174;2023-03-14T14:42:50;11.30;99.90
38860;DHT22;24609;48.316;16.174;2023-03-14T14:45:21;11.20;99.90
38860;DHT22;24609;48.316;16.174;2023-03-14T14:50:39;11.20;99.90
38860;DHT22;24609;48.316;16.174;2023-03-14T14:53:26;11.20;99.90
38860;DHT22;24609;48.316;16.174;2023-03-14T14:55:58;11.20;99.90
38860;DHT22;24609;48.316;16.174;2023-03-14T14:58:33;11.20;99.90
38860;DHT22;24609;48.316;16.174;2023-03-14T15:03:32;11.40;99.90
38860;DHT22;24609;48.316;16.174;2023-03-14T15:05:59;11.60;99.90
38860;DHT22;24609;48.316;16.174;2023-03-14T15:08:25;11.80;99.90
38860;DHT22;24609;48.316;16.174;2023-03-14T15:10:52;12.00;99.90
38860;DHT22;24609;48.316;16.174;2023-03-14T15:13:18;12.20;99.90
38860;DHT22;24609;48.316;16.174;2023-03-14T15:15:44;12.20;99.90
38860;DHT22;24609;48.316;16.174;2023-03-14T15:18:16;12.10;99.90
38860;DHT22;24609;48.316;16.174;2023-03-14T15:20:43;12.00;99.90
38860;DHT22;24609;48.316;16.174;2023-03-14T15:23:13;12.00;99.90
38860;DHT22;24609;48.316;16.174;2023-03-14T15:25:39;11.90;99.90
38860;DHT22;24609;48.316;16.174;2023-03-14T15:28:16;11.80;99.90
38860;DHT22;24609;48.316;16.174;2023-03-14T15:30:42;11.60;99.90
38860;DHT22;24609;48.316;16.174;2023-03-14T15:33:07;11.50;99.90
38860;DHT22;24609;48.316;16.174;2023-03-14T15:35:37;11.50;99.90
38860;DHT22;24609;48.316;16.174;2023-03-14T15:38:03;11.40;99.90
38860;DHT22;24609;48.316;16.174;2023-03-14T15:40:29;11.40;99.90
38860;DHT22;24609;48.316;16.174;2023-03-14T15:42:55;11.40;99.90
38860;DHT22;24609;48.316;16.174;2023-03-14T15:45:21;11.40;99.90
38860;DHT22;24609;48.316;16.174;2023-03-14T15:47:46;11.40;99.90
38860;DHT22;24609;48.316;16.174;2023-03-14T15:50:12;11.40;99.90
38860;DHT22;24609;48.316;16.174;2023-03-14T15:52:38;11.40;99.90
38860;DHT22;24609;48.316;16.174;2023-03-14T15:55:04;11.40;99.90
38860;DHT22;24609;48.316;16.174;2023-03-14T15:57:29;11.40;99.90
38860;DHT22;24609;48.316;16.174;2023-03-14T15:59:55;11.40;99.90
38860;DHT22;24609;48.316;16.174;2023-03-14T16:02:21;11.40;99.90
38860;DHT22;24609;48.316;16.174;2023-03-14T16:04:47;11.30;99.90
38860;DHT22;24609;48.316;16.174;2023-03-14T16:07:12;11.20;99.90
38860;DHT22;24609;48.316;16.174;2023-03-14T16:09:38;11.30;99.90
38860;DHT22;24609;48.316;16.174;2023-03-14T16:12:04;11.20;99.90
38860;DHT22;24609;48.316;16.174;2023-03-14T16:14:33;11.10;99.90
38860;DHT22;24609;48.316;16.174;2023-03-14T16:16:58;11.00;99.90
38860;DHT22;24609;48.316;16.174;2023-03-14T16:19:27;10.90;99.90
38860;DHT22;24609;48.316;16.174;2023-03-14T16:21:53;10.80;99.90
38860;DHT22;24609;48.316;16.174;2023-03-14T16:24:19;10.80;99.90
38860;DHT22;24609;48.316;16.174;2023-03-14T16:26:45;10.70;99.90